sensor_id;sensor_type;location;lat;lon;timestamp;P1;durP1;ratioP1;P2;durP2;ratioP2
4055;SDS011;2043;52.184;8.690;2023-03-19T00:02:03;230.57;;;27.33;;
4055;SDS011;2043;52.184;8.690;2023-03-19T00:04:43;212.43;;;29.37;;
4055;SDS011;2043;52.184;8.690;2023-03-19T00:07:11;192.13;;;30.43;;
4055;SDS011;2043;52.184;8.690;2023-03-19T00:09:39;156.67;;;28.70;;
4055;SDS011;2043;52.184;8.690;2023-03-19T00:12:05;186.10;;;30.47;;
4055;SDS011;2043;52.184;8.690;2023-03-19T00:14:33;224.70;;;30.50;;
4055;SDS011;2043;52.184;8.690;2023-03-19T00:17:00;166.73;;;31.13;;
4055;SDS011;2043;52.184;8.690;2023-03-19T00:19:27;158.23;;;31.67;;
4055;SDS011;2043;52.184;8.690;2023-03-19T00:21:54;148.57;;;29.07;;
4055;SDS011;2043;52.184;8.690;2023-03-19T00:24:21;183.47;;;31.07;;
4055;SDS011;2043;52.184;8.690;2023-03-19T00:26:48;213.93;;;29.73;;
4055;SDS011;2043;52.184;8.690;2023-03-19T00:29:16;117.67;;;28.00;;
4055;SDS011;2043;52.184;8.690;2023-03-19T00:31:43;164.27;;;29.20;;
4055;SDS011;2043;52.184;8.690;2023-03-19T00:34:10;136.73;;;28.63;;
4055;SDS011;2043;52.184;8.690;2023-03-19T00:36:38;90.90;;;28.77;;
4055;SDS011;2043;52.184;8.690;2023-03-19T00:39:05;95.97;;;29.07;;
4055;SDS011;2043;52.184;8.690;2023-03-19T00:41:32;116.87;;;27.73;;
4055;SDS011;2043;52.184;8.690;2023-03-19T00:43:59;90.47;;;26.50;;
4055;SDS011;2043;52.184;8.690;2023-03-19T00:46:26;234.20;;;27.37;;
4055;SDS011;2043;52.184;8.690;2023-03-19T00:48:53;116.53;;;25.80;;
4055;SDS011;2043;52.184;8.690;2023-03-19T00:51:21;178.90;;;31.07;;
4055;SDS011;2043;52.184;8.690;2023-03-19T00:53:49;296.17;;;27.57;;
4055;SDS011;2043;52.184;8.690;2023-03-19T00:56:16;344.43;;;29.60;;
4055;SDS011;2043;52.184;8.690;2023-03-19T00:58:44;187.57;;;27.50;;
4055;SDS011;2043;52.184;8.690;2023-03-19T01:01:13;155.50;;;24.80;;
4055;SDS011;2043;52.184;8.690;2023-03-19T01:03:43;98.03;;;24.20;;
4055;SDS011;2043;52.184;8.690;2023-03-19T01:06:10;84.40;;;23.50;;
4055;SDS011;2043;52.184;8.690;2023-03-19T01:08:38;99.53;;;24.93;;
4055;SDS011;2043;52.184;8.690;2023-03-19T01:11:09;135.13;;;26.87;;
4055;SDS011;2043;52.184;8.690;2023-03-19T01:13:39;84.87;;;25.10;;
4055;SDS011;2043;52.184;8.690;2023-03-19T01:16:07;79.57;;;23.70;;
4055;SDS011;2043;52.184;8.690;2023-03-19T01:18:35;130.33;;;24.20;;
4055;SDS011;2043;52.184;8.690;2023-03-19T01:21:02;155.10;;;24.87;;
4055;SDS011;2043;52.184;8.690;2023-03-19T01:23:29;246.20;;;26.17;;
4055;SDS011;2043;52.184;8.690;2023-03-19T01:25:56;91.07;;;22.77;;
4055;SDS011;2043;52.184;8.690;2023-03-19T01:28:23;66.67;;;22.83;;
4055;SDS011;2043;52.184;8.690;2023-03-19T01:30:50;78.10;;;22.10;;
4055;SDS011;2043;52.184;8.690;2023-03-19T01:33:17;64.97;;;23.67;;
4055;SDS011;2043;52.184;8.690;2023-03-19T01:35:45;50.57;;;23.73;;
4055;SDS011;2043;52.184;8.690;2023-03-19T01:38:13;109.47;;;23.90;;
4055;SDS011;2043;52.184;8.690;2023-03-19T01:40:43;67.33;;;23.83;;
4055;SDS011;2043;52.184;8.690;2023-03-19T01:43:21;71.83;;;25.00;;
4055;SDS011;2043;52.184;8.690;2023-03-19T01:45:50;51.53;;;24.30;;
4055;SDS011;2043;52.184;8.690;2023-03-19T01:50:47;42.90;;;24.77;;
4055;SDS011;2043;52.184;8.690;2023-03-19T01:53:16;40.80;;;23.03;;
4055;SDS011;2043;52.184;8.690;2023-03-19T01:55:44;51.33;;;22.90;;
4055;SDS011;2043;52.184;8.690;2023-03-19T01:58:12;44.53;;;21.93;;
4055;SDS011;2043;52.184;8.690;2023-03-19T02:00:39;36.73;;;21.50;;
4055;SDS011;2043;52.184;8.690;2023-03-19T02:03:07;33.93;;;21.30;;
4055;SDS011;2043;52.184;8.690;2023-03-19T02:05:35;39.50;;;23.50;;
4055;SDS011;2043;52.184;8.690;2023-03-19T02:08:04;38.97;;;23.37;;
4055;SDS011;2043;52.184;8.690;2023-03-19T02:10:32;38.23;;;22.60;;
4055;SDS011;2043;52.184;8.690;2023-03-19T02:12:59;31.87;;;20.73;;
4055;SDS011;2043;52.184;8.690;2023-03-19T02:15:26;36.77;;;21.20;;
4055;SDS011;2043;52.184;8.690;2023-03-19T02:17:53;36.53;;;22.00;;
4055;SDS011;2043;52.184;8.690;2023-03-19T02:20:31;31.23;;;18.87;;
4055;SDS011;2043;52.184;8.690;2023-03-19T02:23:06;33.80;;;20.30;;
4055;SDS011;2043;52.184;8.690;2023-03-19T02:28:16;39.70;;;23.03;;
4055;SDS011;2043;52.184;8.690;2023-03-19T02:30:44;32.20;;;20.90;;
4055;SDS011;2043;52.184;8.690;2023-03-19T02:33:11;32.70;;;19.43;;
4055;SDS011;2043;52.184;8.690;2023-03-19T02:35:39;29.37;;;19.07;;
4055;SDS011;2043;52.184;8.690;2023-03-19T02:38:07;31.07;;;20.20;;
4055;SDS011;2043;52.184;8.690;2023-03-19T02:40:58;35.37;;;20.00;;
4055;SDS011;2043;52.184;8.690;2023-03-19T02:43:26;34.53;;;20.83;;
4055;SDS011;2043;52.184;8.690;2023-03-19T02:45:53;30.17;;;20.10;;
4055;SDS011;2043;52.184;8.690;2023-03-19T02:48:20;29.00;;;18.93;;
4055;SDS011;2043;52.184;8.690;2023-03-19T02:50:47;29.87;;;18.53;;
4055;SDS011;2043;52.184;8.690;2023-03-19T02:53:14;33.03;;;21.20;;
4055;SDS011;2043;52.184;8.690;2023-03-19T02:55:41;30.17;;;19.43;;
4055;SDS011;2043;52.184;8.690;2023-03-19T02:58:08;33.13;;;20.10;;
4055;SDS011;2043;52.184;8.690;2023-03-19T03:00:35;30.83;;;19.50;;
4055;SDS011;2043;52.184;8.690;2023-03-19T03:03:03;31.30;;;20.27;;
4055;SDS011;2043;52.184;8.690;2023-03-19T03:05:32;30.37;;;20.10;;
4055;SDS011;2043;52.184;8.690;2023-03-19T03:07:59;32.83;;;19.67;;
4055;SDS011;2043;52.184;8.690;2023-03-19T03:10:26;24.57;;;16.00;;
4055;SDS011;2043;52.184;8.690;2023-03-19T03:12:53;28.57;;;18.27;;
4055;SDS011;2043;52.184;8.690;2023-03-19T03:15:19;29.70;;;18.60;;
4055;SDS011;2043;52.184;8.690;2023-03-19T03:17:46;28.93;;;19.00;;
4055;SDS011;2043;52.184;8.690;2023-03-19T03:20:14;34.90;;;19.20;;
4055;SDS011;2043;52.184;8.690;2023-03-19T03:22:42;30.63;;;16.80;;
4055;SDS011;2043;52.184;8.690;2023-03-19T03:25:09;31.10;;;17.20;;
4055;SDS011;2043;52.184;8.690;2023-03-19T03:27:37;27.03;;;17.23;;
4055;SDS011;2043;52.184;8.690;2023-03-19T03:30:05;26.80;;;17.83;;
4055;SDS011;2043;52.184;8.690;2023-03-19T03:32:36;29.53;;;19.40;;
4055;SDS011;2043;52.184;8.690;2023-03-19T03:35:04;30.20;;;18.30;;
4055;SDS011;2043;52.184;8.690;2023-03-19T03:37:33;28.80;;;19.20;;
4055;SDS011;2043;52.184;8.690;2023-03-19T03:40:00;32.20;;;20.37;;
4055;SDS011;2043;52.184;8.690;2023-03-19T03:42:31;33.93;;;18.67;;
4055;SDS011;2043;52.184;8.690;2023-03-19T03:44:58;28.93;;;18.50;;
4055;SDS011;2043;52.184;8.690;2023-03-19T03:47:26;26.30;;;17.70;;
4055;SDS011;2043;52.184;8.690;2023-03-19T03:49:52;26.50;;;17.50;;
4055;SDS011;2043;52.184;8.690;2023-03-19T03:52:19;32.27;;;18.57;;
4055;SDS011;2043;52.184;8.690;2023-03-19T03:54:46;27.17;;;17.50;;
4055;SDS011;2043;52.184;8.690;2023-03-19T03:57:13;27.83;;;18.57;;
4055;SDS011;2043;52.184;8.690;2023-03-19T03:59:40;30.30;;;19.17;;
4055;SDS011;2043;52.184;8.690;2023-03-19T04:02:07;30.53;;;17.50;;
4055;SDS011;2043;52.184;8.690;2023-03-19T04:04:34;26.63;;;17.53;;
4055;SDS011;2043;52.184;8.690;2023-03-19T04:07:01;26.40;;;18.53;;
4055;SDS011;2043;52.184;8.690;2023-03-19T04:09:28;28.43;;;18.20;;
4055;SDS011;2043;52.184;8.690;2023-03-19T04:11:54;30.53;;;18.20;;
4055;SDS011;2043;52.184;8.690;2023-03-19T04:14:21;28.20;;;17.93;;
4055;SDS011;2043;52.184;8.690;2023-03-19T04:16:48;27.93;;;16.97;;
4055;SDS011;2043;52.184;8.690;2023-03-19T04:19:14;31.03;;;19.70;;
4055;SDS011;2043;52.184;8.690;2023-03-19T04:21:42;29.30;;;18.80;;
4055;SDS011;2043;52.184;8.690;2023-03-19T04:24:10;27.80;;;19.03;;
4055;SDS011;2043;52.184;8.690;2023-03-19T04:26:37;27.20;;;18.17;;
4055;SDS011;2043;52.184;8.690;2023-03-19T04:29:04;28.57;;;19.30;;
4055;SDS011;2043;52.184;8.690;2023-03-19T04:31:33;29.80;;;18.27;;
4055;SDS011;2043;52.184;8.690;2023-03-19T04:34:00;27.50;;;17.97;;
4055;SDS011;2043;52.184;8.690;2023-03-19T04:36:27;27.50;;;16.37;;
4055;SDS011;2043;52.184;8.690;2023-03-19T04:38:54;25.27;;;17.33;;
4055;SDS011;2043;52.184;8.690;2023-03-19T04:41:21;28.63;;;18.00;;
4055;SDS011;2043;52.184;8.690;2023-03-19T04:43:47;24.37;;;16.70;;
4055;SDS011;2043;52.184;8.690;2023-03-19T04:46:14;21.13;;;14.83;;
4055;SDS011;2043;52.184;8.690;2023-03-19T04:48:42;24.20;;;15.57;;
4055;SDS011;2043;52.184;8.690;2023-03-19T04:51:08;27.37;;;16.70;;
4055;SDS011;2043;52.184;8.690;2023-03-19T04:53:35;25.50;;;16.43;;
4055;SDS011;2043;52.184;8.690;2023-03-19T04:56:04;26.43;;;17.77;;
4055;SDS011;2043;52.184;8.690;2023-03-19T04:58:32;26.80;;;17.70;;
4055;SDS011;2043;52.184;8.690;2023-03-19T05:00:59;26.07;;;17.67;;
4055;SDS011;2043;52.184;8.690;2023-03-19T05:03:26;23.40;;;16.30;;
4055;SDS011;2043;52.184;8.690;2023-03-19T05:05:53;25.87;;;16.77;;
4055;SDS011;2043;52.184;8.690;2023-03-19T05:08:20;22.50;;;15.33;;
4055;SDS011;2043;52.184;8.690;2023-03-19T05:10:47;23.83;;;15.10;;
4055;SDS011;2043;52.184;8.690;2023-03-19T05:13:13;20.40;;;14.40;;
4055;SDS011;2043;52.184;8.690;2023-03-19T05:15:41;22.23;;;15.23;;
4055;SDS011;2043;52.184;8.690;2023-03-19T05:18:09;25.50;;;15.43;;
4055;SDS011;2043;52.184;8.690;2023-03-19T05:20:36;22.50;;;15.60;;
4055;SDS011;2043;52.184;8.690;2023-03-19T05:23:04;23.13;;;15.30;;
4055;SDS011;2043;52.184;8.690;2023-03-19T05:25:32;21.63;;;14.00;;
4055;SDS011;2043;52.184;8.690;2023-03-19T05:28:00;21.50;;;14.50;;
4055;SDS011;2043;52.184;8.690;2023-03-19T05:30:27;23.73;;;15.07;;
4055;SDS011;2043;52.184;8.690;2023-03-19T05:32:55;20.83;;;14.13;;
4055;SDS011;2043;52.184;8.690;2023-03-19T05:35:23;18.90;;;13.40;;
4055;SDS011;2043;52.184;8.690;2023-03-19T05:37:50;37.10;;;12.47;;
4055;SDS011;2043;52.184;8.690;2023-03-19T05:40:17;22.33;;;12.37;;
4055;SDS011;2043;52.184;8.690;2023-03-19T05:42:44;20.00;;;12.77;;
4055;SDS011;2043;52.184;8.690;2023-03-19T05:45:11;19.27;;;12.60;;
4055;SDS011;2043;52.184;8.690;2023-03-19T05:47:38;17.57;;;12.20;;
4055;SDS011;2043;52.184;8.690;2023-03-19T05:50:05;20.97;;;13.03;;
4055;SDS011;2043;52.184;8.690;2023-03-19T05:52:32;17.20;;;11.67;;
4055;SDS011;2043;52.184;8.690;2023-03-19T05:54:59;21.33;;;12.70;;
4055;SDS011;2043;52.184;8.690;2023-03-19T05:57:26;20.53;;;13.37;;
4055;SDS011;2043;52.184;8.690;2023-03-19T05:59:53;20.87;;;12.30;;
4055;SDS011;2043;52.184;8.690;2023-03-19T06:02:20;24.20;;;13.13;;
4055;SDS011;2043;52.184;8.690;2023-03-19T06:04:47;19.47;;;12.93;;
4055;SDS011;2043;52.184;8.690;2023-03-19T06:07:13;19.10;;;12.47;;
4055;SDS011;2043;52.184;8.690;2023-03-19T06:09:40;19.03;;;11.70;;
4055;SDS011;2043;52.184;8.690;2023-03-19T06:12:07;21.83;;;12.27;;
4055;SDS011;2043;52.184;8.690;2023-03-19T06:14:34;21.10;;;12.73;;
4055;SDS011;2043;52.184;8.690;2023-03-19T06:17:01;21.43;;;13.53;;
4055;SDS011;2043;52.184;8.690;2023-03-19T06:19:28;18.40;;;12.57;;
4055;SDS011;2043;52.184;8.690;2023-03-19T06:21:56;20.73;;;11.80;;
4055;SDS011;2043;52.184;8.690;2023-03-19T06:24:22;19.73;;;11.97;;
4055;SDS011;2043;52.184;8.690;2023-03-19T06:26:49;20.53;;;12.50;;
4055;SDS011;2043;52.184;8.690;2023-03-19T06:29:16;18.40;;;12.27;;
4055;SDS011;2043;52.184;8.690;2023-03-19T06:31:43;15.87;;;11.23;;
4055;SDS011;2043;52.184;8.690;2023-03-19T06:34:10;15.70;;;10.77;;
4055;SDS011;2043;52.184;8.690;2023-03-19T06:36:37;12.70;;;9.60;;
4055;SDS011;2043;52.184;8.690;2023-03-19T06:39:03;12.30;;;8.80;;
4055;SDS011;2043;52.184;8.690;2023-03-19T06:41:30;12.60;;;8.73;;
4055;SDS011;2043;52.184;8.690;2023-03-19T06:43:57;14.87;;;9.27;;
4055;SDS011;2043;52.184;8.690;2023-03-19T06:46:24;12.90;;;8.40;;
4055;SDS011;2043;52.184;8.690;2023-03-19T06:48:51;13.70;;;8.00;;
4055;SDS011;2043;52.184;8.690;2023-03-19T06:51:18;14.83;;;8.47;;
4055;SDS011;2043;52.184;8.690;2023-03-19T06:53:45;11.33;;;7.97;;
4055;SDS011;2043;52.184;8.690;2023-03-19T06:56:12;16.80;;;7.77;;
4055;SDS011;2043;52.184;8.690;2023-03-19T06:58:38;12.67;;;7.77;;
4055;SDS011;2043;52.184;8.690;2023-03-19T07:01:05;12.30;;;7.90;;
4055;SDS011;2043;52.184;8.690;2023-03-19T07:03:32;10.80;;;8.13;;
4055;SDS011;2043;52.184;8.690;2023-03-19T07:05:59;12.03;;;7.70;;
4055;SDS011;2043;52.184;8.690;2023-03-19T07:08:26;14.87;;;8.50;;
4055;SDS011;2043;52.184;8.690;2023-03-19T07:10:55;17.23;;;9.63;;
4055;SDS011;2043;52.184;8.690;2023-03-19T07:13:22;22.37;;;14.80;;
4055;SDS011;2043;52.184;8.690;2023-03-19T07:15:49;23.50;;;14.50;;
4055;SDS011;2043;52.184;8.690;2023-03-19T07:18:16;30.23;;;16.10;;
4055;SDS011;2043;52.184;8.690;2023-03-19T07:20:42;32.13;;;17.30;;
4055;SDS011;2043;52.184;8.690;2023-03-19T07:23:09;17.63;;;12.27;;
4055;SDS011;2043;52.184;8.690;2023-03-19T07:25:36;15.10;;;10.20;;
4055;SDS011;2043;52.184;8.690;2023-03-19T07:28:03;13.93;;;9.53;;
4055;SDS011;2043;52.184;8.690;2023-03-19T07:30:29;13.03;;;10.13;;
4055;SDS011;2043;52.184;8.690;2023-03-19T07:32:57;13.53;;;9.77;;
4055;SDS011;2043;52.184;8.690;2023-03-19T07:35:24;13.97;;;10.27;;
4055;SDS011;2043;52.184;8.690;2023-03-19T07:37:50;14.77;;;10.97;;
4055;SDS011;2043;52.184;8.690;2023-03-19T07:40:17;15.40;;;10.00;;
4055;SDS011;2043;52.184;8.690;2023-03-19T07:42:44;17.33;;;11.90;;
4055;SDS011;2043;52.184;8.690;2023-03-19T07:45:11;18.93;;;12.57;;
4055;SDS011;2043;52.184;8.690;2023-03-19T07:47:38;19.53;;;13.33;;
4055;SDS011;2043;52.184;8.690;2023-03-19T07:50:05;18.50;;;13.80;;
4055;SDS011;2043;52.184;8.690;2023-03-19T07:52:33;19.70;;;14.57;;
4055;SDS011;2043;52.184;8.690;2023-03-19T07:54:59;19.00;;;13.73;;
4055;SDS011;2043;52.184;8.690;2023-03-19T07:57:26;21.03;;;14.40;;
4055;SDS011;2043;52.184;8.690;2023-03-19T07:59:53;18.10;;;11.67;;
4055;SDS011;2043;52.184;8.690;2023-03-19T08:02:20;13.43;;;9.27;;
4055;SDS011;2043;52.184;8.690;2023-03-19T08:04:48;12.30;;;7.00;;
4055;SDS011;2043;52.184;8.690;2023-03-19T08:07:16;8.10;;;5.50;;
4055;SDS011;2043;52.184;8.690;2023-03-19T08:09:42;9.73;;;6.03;;
4055;SDS011;2043;52.184;8.690;2023-03-19T08:12:09;11.90;;;5.90;;
4055;SDS011;2043;52.184;8.690;2023-03-19T08:14:36;11.77;;;5.87;;
4055;SDS011;2043;52.184;8.690;2023-03-19T08:17:03;15.33;;;6.93;;
4055;SDS011;2043;52.184;8.690;2023-03-19T08:19:30;12.67;;;6.90;;
4055;SDS011;2043;52.184;8.690;2023-03-19T08:21:57;12.37;;;6.63;;
4055;SDS011;2043;52.184;8.690;2023-03-19T08:24:24;8.50;;;5.60;;
4055;SDS011;2043;52.184;8.690;2023-03-19T08:26:51;12.10;;;5.60;;
4055;SDS011;2043;52.184;8.690;2023-03-19T08:29:18;7.97;;;4.73;;
4055;SDS011;2043;52.184;8.690;2023-03-19T08:31:45;7.90;;;4.77;;
4055;SDS011;2043;52.184;8.690;2023-03-19T08:34:12;9.03;;;4.70;;
4055;SDS011;2043;52.184;8.690;2023-03-19T08:36:38;7.70;;;4.30;;
4055;SDS011;2043;52.184;8.690;2023-03-19T08:39:05;7.50;;;4.87;;
4055;SDS011;2043;52.184;8.690;2023-03-19T08:41:32;14.53;;;5.07;;
4055;SDS011;2043;52.184;8.690;2023-03-19T08:43:59;10.47;;;4.87;;
4055;SDS011;2043;52.184;8.690;2023-03-19T08:46:26;8.37;;;4.53;;
4055;SDS011;2043;52.184;8.690;2023-03-19T08:48:54;8.60;;;5.00;;
4055;SDS011;2043;52.184;8.690;2023-03-19T08:51:21;9.30;;;4.87;;
4055;SDS011;2043;52.184;8.690;2023-03-19T08:53:51;9.00;;;4.30;;
4055;SDS011;2043;52.184;8.690;2023-03-19T08:56:18;10.43;;;5.13;;
4055;SDS011;2043;52.184;8.690;2023-03-19T08:58:45;9.90;;;5.10;;
4055;SDS011;2043;52.184;8.690;2023-03-19T09:01:13;10.43;;;4.90;;
4055;SDS011;2043;52.184;8.690;2023-03-19T09:03:41;10.53;;;5.60;;
4055;SDS011;2043;52.184;8.690;2023-03-19T09:06:10;10.47;;;6.00;;
4055;SDS011;2043;52.184;8.690;2023-03-19T09:08:37;10.43;;;6.20;;
4055;SDS011;2043;52.184;8.690;2023-03-19T09:11:04;10.63;;;5.90;;
4055;SDS011;2043;52.184;8.690;2023-03-19T09:13:32;11.50;;;5.43;;
4055;SDS011;2043;52.184;8.690;2023-03-19T09:15:59;9.03;;;5.93;;
4055;SDS011;2043;52.184;8.690;2023-03-19T09:18:26;9.90;;;5.40;;
4055;SDS011;2043;52.184;8.690;2023-03-19T09:20:53;12.33;;;5.10;;
4055;SDS011;2043;52.184;8.690;2023-03-19T09:23:20;7.73;;;4.90;;
4055;SDS011;2043;52.184;8.690;2023-03-19T09:25:48;9.13;;;5.47;;
4055;SDS011;2043;52.184;8.690;2023-03-19T09:28:16;11.57;;;5.13;;
4055;SDS011;2043;52.184;8.690;2023-03-19T09:30:46;8.63;;;4.97;;
4055;SDS011;2043;52.184;8.690;2023-03-19T09:33:15;11.13;;;5.10;;
4055;SDS011;2043;52.184;8.690;2023-03-19T09:35:42;9.73;;;5.77;;
4055;SDS011;2043;52.184;8.690;2023-03-19T09:38:15;10.50;;;5.60;;
4055;SDS011;2043;52.184;8.690;2023-03-19T09:40:46;8.90;;;4.90;;
4055;SDS011;2043;52.184;8.690;2023-03-19T09:46:21;9.23;;;5.33;;
4055;SDS011;2043;52.184;8.690;2023-03-19T09:48:56;8.13;;;5.53;;
4055;SDS011;2043;52.184;8.690;2023-03-19T09:51:29;9.63;;;5.73;;
4055;SDS011;2043;52.184;8.690;2023-03-19T09:57:06;9.17;;;5.40;;
4055;SDS011;2043;52.184;8.690;2023-03-19T09:59:35;8.00;;;5.13;;
4055;SDS011;2043;52.184;8.690;2023-03-19T10:11:07;11.70;;;5.90;;
4055;SDS011;2043;52.184;8.690;2023-03-19T10:16:29;11.33;;;5.80;;
4055;SDS011;2043;52.184;8.690;2023-03-19T10:19:01;10.83;;;6.20;;
4055;SDS011;2043;52.184;8.690;2023-03-19T10:21:38;10.07;;;6.30;;
4055;SDS011;2043;52.184;8.690;2023-03-19T10:26:39;12.60;;;6.63;;
4055;SDS011;2043;52.184;8.690;2023-03-19T10:31:55;10.60;;;6.83;;
4055;SDS011;2043;52.184;8.690;2023-03-19T10:34:31;12.87;;;7.00;;
4055;SDS011;2043;52.184;8.690;2023-03-19T10:37:01;12.60;;;6.77;;
4055;SDS011;2043;52.184;8.690;2023-03-19T10:39:34;14.77;;;8.33;;
4055;SDS011;2043;52.184;8.690;2023-03-19T10:47:36;9.10;;;6.43;;
4055;SDS011;2043;52.184;8.690;2023-03-19T10:50:04;14.50;;;7.10;;
4055;SDS011;2043;52.184;8.690;2023-03-19T10:52:35;10.63;;;7.13;;
4055;SDS011;2043;52.184;8.690;2023-03-19T10:55:16;12.40;;;7.33;;
4055;SDS011;2043;52.184;8.690;2023-03-19T10:57:49;9.90;;;7.33;;
4055;SDS011;2043;52.184;8.690;2023-03-19T11:00:22;12.60;;;7.60;;
4055;SDS011;2043;52.184;8.690;2023-03-19T11:02:52;10.70;;;7.97;;
4055;SDS011;2043;52.184;8.690;2023-03-19T11:07:50;11.37;;;8.30;;
4055;SDS011;2043;52.184;8.690;2023-03-19T11:10:23;16.90;;;9.03;;
4055;SDS011;2043;52.184;8.690;2023-03-19T11:12:55;10.13;;;7.63;;
4055;SDS011;2043;52.184;8.690;2023-03-19T11:15:35;9.80;;;6.60;;
4055;SDS011;2043;52.184;8.690;2023-03-19T11:18:23;11.50;;;7.23;;
4055;SDS011;2043;52.184;8.690;2023-03-19T11:23:28;8.83;;;5.87;;
4055;SDS011;2043;52.184;8.690;2023-03-19T11:25:59;12.67;;;6.33;;
4055;SDS011;2043;52.184;8.690;2023-03-19T11:28:29;7.87;;;5.70;;
4055;SDS011;2043;52.184;8.690;2023-03-19T11:31:01;10.27;;;6.17;;
4055;SDS011;2043;52.184;8.690;2023-03-19T11:42:06;9.60;;;5.73;;
4055;SDS011;2043;52.184;8.690;2023-03-19T11:50:14;7.97;;;5.20;;
4055;SDS011;2043;52.184;8.690;2023-03-19T11:55:34;10.10;;;6.00;;
4055;SDS011;2043;52.184;8.690;2023-03-19T11:58:26;8.80;;;5.90;;
4055;SDS011;2043;52.184;8.690;2023-03-19T12:21:13;12.87;;;7.70;;
4055;SDS011;2043;52.184;8.690;2023-03-19T12:29:07;8.93;;;6.80;;
4055;SDS011;2043;52.184;8.690;2023-03-19T12:40:00;11.53;;;7.90;;
4055;SDS011;2043;52.184;8.690;2023-03-19T12:42:45;14.93;;;8.80;;
4055;SDS011;2043;52.184;8.690;2023-03-19T12:45:34;10.50;;;7.30;;
4055;SDS011;2043;52.184;8.690;2023-03-19T12:48:45;10.73;;;7.70;;
4055;SDS011;2043;52.184;8.690;2023-03-19T12:51:04;10.60;;;7.53;;
4055;SDS011;2043;52.184;8.690;2023-03-19T12:53:41;10.93;;;7.87;;
4055;SDS011;2043;52.184;8.690;2023-03-19T12:56:23;10.50;;;7.20;;
4055;SDS011;2043;52.184;8.690;2023-03-19T12:59:25;11.47;;;7.80;;
4055;SDS011;2043;52.184;8.690;2023-03-19T13:02:03;12.40;;;8.20;;
4055;SDS011;2043;52.184;8.690;2023-03-19T13:04:35;10.50;;;7.70;;
4055;SDS011;2043;52.184;8.690;2023-03-19T13:09:59;12.97;;;8.40;;
4055;SDS011;2043;52.184;8.690;2023-03-19T13:12:32;12.60;;;8.80;;
4055;SDS011;2043;52.184;8.690;2023-03-19T13:15:08;11.77;;;8.80;;
4055;SDS011;2043;52.184;8.690;2023-03-19T13:23:28;19.20;;;10.70;;
4055;SDS011;2043;52.184;8.690;2023-03-19T13:25:57;15.63;;;10.97;;
4055;SDS011;2043;52.184;8.690;2023-03-19T13:28:27;14.63;;;10.53;;
4055;SDS011;2043;52.184;8.690;2023-03-19T13:31:07;13.53;;;10.10;;
4055;SDS011;2043;52.184;8.690;2023-03-19T13:33:50;15.80;;;10.00;;
4055;SDS011;2043;52.184;8.690;2023-03-19T13:36:27;13.50;;;9.80;;
4055;SDS011;2043;52.184;8.690;2023-03-19T13:38:56;15.53;;;9.70;;
4055;SDS011;2043;52.184;8.690;2023-03-19T13:43:58;22.20;;;11.60;;
4055;SDS011;2043;52.184;8.690;2023-03-19T13:46:48;14.63;;;10.50;;
4055;SDS011;2043;52.184;8.690;2023-03-19T13:49:23;14.87;;;9.93;;
4055;SDS011;2043;52.184;8.690;2023-03-19T13:52:32;13.80;;;9.90;;
4055;SDS011;2043;52.184;8.690;2023-03-19T13:54:40;15.03;;;10.57;;
4055;SDS011;2043;52.184;8.690;2023-03-19T13:59:43;15.80;;;10.80;;
4055;SDS011;2043;52.184;8.690;2023-03-19T14:05:00;17.80;;;10.97;;
4055;SDS011;2043;52.184;8.690;2023-03-19T14:07:28;14.10;;;9.00;;
4055;SDS011;2043;52.184;8.690;2023-03-19T14:12:36;18.30;;;9.90;;
4055;SDS011;2043;52.184;8.690;2023-03-19T14:28:22;17.93;;;10.67;;
4055;SDS011;2043;52.184;8.690;2023-03-19T14:31:17;15.30;;;9.60;;
4055;SDS011;2043;52.184;8.690;2023-03-19T14:36:40;13.70;;;8.97;;
4055;SDS011;2043;52.184;8.690;2023-03-19T14:39:23;15.87;;;10.23;;
4055;SDS011;2043;52.184;8.690;2023-03-19T14:41:56;15.93;;;8.93;;
4055;SDS011;2043;52.184;8.690;2023-03-19T14:53:08;14.63;;;8.50;;
4055;SDS011;2043;52.184;8.690;2023-03-19T14:55:46;13.33;;;8.20;;
4055;SDS011;2043;52.184;8.690;2023-03-19T14:58:17;13.10;;;8.47;;
4055;SDS011;2043;52.184;8.690;2023-03-19T15:00:46;14.03;;;8.30;;
4055;SDS011;2043;52.184;8.690;2023-03-19T15:03:31;14.43;;;8.00;;
4055;SDS011;2043;52.184;8.690;2023-03-19T15:06:03;12.10;;;7.77;;
4055;SDS011;2043;52.184;8.690;2023-03-19T15:08:34;15.70;;;9.30;;
4055;SDS011;2043;52.184;8.690;2023-03-19T15:14:24;14.17;;;8.57;;
4055;SDS011;2043;52.184;8.690;2023-03-19T15:16:59;15.43;;;9.50;;
4055;SDS011;2043;52.184;8.690;2023-03-19T15:19:36;17.13;;;11.13;;
4055;SDS011;2043;52.184;8.690;2023-03-19T15:22:16;14.97;;;9.73;;
4055;SDS011;2043;52.184;8.690;2023-03-19T15:24:46;16.10;;;10.40;;
4055;SDS011;2043;52.184;8.690;2023-03-19T15:27:18;18.80;;;10.33;;
4055;SDS011;2043;52.184;8.690;2023-03-19T15:29:45;15.80;;;10.27;;
4055;SDS011;2043;52.184;8.690;2023-03-19T15:35:23;15.30;;;10.00;;
4055;SDS011;2043;52.184;8.690;2023-03-19T15:37:55;16.67;;;9.63;;
4055;SDS011;2043;52.184;8.690;2023-03-19T15:40:25;16.47;;;8.87;;
4055;SDS011;2043;52.184;8.690;2023-03-19T15:42:57;15.43;;;9.53;;
4055;SDS011;2043;52.184;8.690;2023-03-19T15:45:26;11.70;;;7.60;;
4055;SDS011;2043;52.184;8.690;2023-03-19T15:50:34;11.83;;;7.90;;
4055;SDS011;2043;52.184;8.690;2023-03-19T15:53:07;12.57;;;8.10;;
4055;SDS011;2043;52.184;8.690;2023-03-19T15:55:37;14.37;;;10.10;;
4055;SDS011;2043;52.184;8.690;2023-03-19T15:58:06;17.27;;;10.80;;
4055;SDS011;2043;52.184;8.690;2023-03-19T16:00:39;20.97;;;11.10;;
4055;SDS011;2043;52.184;8.690;2023-03-19T16:03:07;18.13;;;11.47;;
4055;SDS011;2043;52.184;8.690;2023-03-19T16:05:41;18.83;;;12.10;;
4055;SDS011;2043;52.184;8.690;2023-03-19T16:10:50;18.53;;;12.27;;
4055;SDS011;2043;52.184;8.690;2023-03-19T16:18:39;19.30;;;11.43;;
4055;SDS011;2043;52.184;8.690;2023-03-19T16:24:14;13.70;;;9.40;;
4055;SDS011;2043;52.184;8.690;2023-03-19T16:26:45;16.87;;;10.83;;
4055;SDS011;2043;52.184;8.690;2023-03-19T16:31:44;14.90;;;10.40;;
4055;SDS011;2043;52.184;8.690;2023-03-19T16:34:38;16.47;;;9.80;;
4055;SDS011;2043;52.184;8.690;2023-03-19T16:42:39;31.77;;;19.47;;
4055;SDS011;2043;52.184;8.690;2023-03-19T16:47:52;19.77;;;10.80;;
4055;SDS011;2043;52.184;8.690;2023-03-19T16:53:03;18.50;;;11.67;;
4055;SDS011;2043;52.184;8.690;2023-03-19T16:55:35;17.80;;;10.70;;
4055;SDS011;2043;52.184;8.690;2023-03-19T16:58:09;16.43;;;11.50;;
4055;SDS011;2043;52.184;8.690;2023-03-19T17:00:46;16.10;;;10.70;;
4055;SDS011;2043;52.184;8.690;2023-03-19T17:03:15;15.20;;;10.33;;
4055;SDS011;2043;52.184;8.690;2023-03-19T17:05:46;15.67;;;11.17;;
4055;SDS011;2043;52.184;8.690;2023-03-19T17:08:13;19.07;;;12.67;;
4055;SDS011;2043;52.184;8.690;2023-03-19T17:10:42;21.83;;;13.83;;
4055;SDS011;2043;52.184;8.690;2023-03-19T17:13:15;18.03;;;11.83;;
4055;SDS011;2043;52.184;8.690;2023-03-19T17:15:46;15.60;;;10.83;;
4055;SDS011;2043;52.184;8.690;2023-03-19T17:18:15;15.33;;;10.30;;
4055;SDS011;2043;52.184;8.690;2023-03-19T17:20:54;14.20;;;9.70;;
4055;SDS011;2043;52.184;8.690;2023-03-19T17:23:26;15.83;;;10.77;;
4055;SDS011;2043;52.184;8.690;2023-03-19T17:25:53;14.87;;;10.47;;
4055;SDS011;2043;52.184;8.690;2023-03-19T17:28:20;17.73;;;10.63;;
4055;SDS011;2043;52.184;8.690;2023-03-19T17:30:47;16.97;;;11.43;;
4055;SDS011;2043;52.184;8.690;2023-03-19T17:33:25;21.43;;;13.40;;
4055;SDS011;2043;52.184;8.690;2023-03-19T17:35:54;20.87;;;13.00;;
4055;SDS011;2043;52.184;8.690;2023-03-19T17:38:24;17.00;;;11.97;;
4055;SDS011;2043;52.184;8.690;2023-03-19T17:40:57;20.23;;;12.47;;
4055;SDS011;2043;52.184;8.690;2023-03-19T17:43:24;19.23;;;12.97;;
4055;SDS011;2043;52.184;8.690;2023-03-19T17:45:51;23.70;;;12.23;;
4055;SDS011;2043;52.184;8.690;2023-03-19T17:48:23;18.40;;;12.63;;
4055;SDS011;2043;52.184;8.690;2023-03-19T17:50:51;22.73;;;13.13;;
4055;SDS011;2043;52.184;8.690;2023-03-19T17:53:23;19.20;;;11.97;;
4055;SDS011;2043;52.184;8.690;2023-03-19T17:55:50;19.50;;;12.07;;